Time;durP1;ratioP1;P1;durP2;ratioP2;P2;SDS_P1;SDS_P2;PMS_P1;PMS_P2;Temp;Humidity;BMP_temperature;BMP_pressure;BME280_temperature;BME280_humidity;BME280_pressure;Samples;Min_cycle;Max_cycle;Signal;HPM_P1;HPM_P2
2022/04/11 00:01:24;;;;;;;12.98;9.13;;;;;;;1.94;82.44;101776.53;6155389;23;20035;-84
2022/04/11 00:03:55;;;;;;;12.43;9.55;;;;;;;3.09;82.60;101960.28;6129385;23;20016;-84
2022/04/11 00:06:20;;;;;;;13.13;9.27;;;;;;;2.74;82.83;101909.72;6155385;23;20001;-83
2022/04/11 00:08:46;;;;;;;13.35;9.48;;;;;;;2.21;82.49;101822.03;6155053;23;20486;-84
2022/04/11 00:11:11;;;;;;;12.38;9.82;;;;;;;2.99;83.12;101955.34;6155228;23;20001;-84
2022/04/11 00:13:37;;;;;;;13.90;9.80;;;;;;;3.01;83.20;101951.91;6169257;23;20494;-84
2022/04/11 00:16:18;;;;;;;11.55;9.20;;;;;;;2.36;82.51;101849.06;6158467;23;20008;-82
2022/04/11 00:18:49;;;;;;;13.90;10.25;;;;;;;2.60;83.04;101881.03;6158558;23;20009;-83
2022/04/11 00:21:15;;;;;;;;;;;;;;;3.03;81.80;101950.16;6185330;23;20067;-84
2022/04/11 00:23:55;;;;;;;14.57;10.43;;;;;;;2.03;82.98;101790.84;6184670;23;19991;-84
2022/04/11 00:26:29;;;;;;;15.30;10.73;;;;;;;1.83;82.49;101752.88;6184748;23;20032;-84
2022/04/11 00:28:54;;;;;;;15.95;11.82;;;;;;;2.92;82.57;101941.81;6185475;23;20005;-83
2022/04/11 00:31:35;;;;;;;13.40;11.13;;;;;;;1.88;83.18;101774.91;6157402;23;20334;-84
2022/04/11 00:34:47;;;;;;;14.25;11.55;;;;;;;2.93;83.27;101937.56;6184862;23;20091;-83
2022/04/11 00:37:12;;;;;;;16.58;11.65;;;;;;;2.48;83.13;101871.84;6185130;23;20013;-84
2022/04/11 00:39:38;;;;;;;16.52;12.32;;;;;;;1.92;83.22;101768.06;6185070;23;20437;-84
2022/04/11 00:42:15;;;;;;;18.33;12.68;;;;;;;2.92;83.56;101925.66;6184750;23;20427;-84
2022/04/11 00:44:41;;;;;;;15.20;12.20;;;;;;;2.30;83.32;101828.75;6184820;23;20005;-83
2022/04/11 00:47:16;;;;;;;14.65;12.05;;;;;;;1.50;83.49;101696.44;6184498;23;20453;-84
2022/04/11 00:49:46;;;;;;;16.40;13.10;;;;;;;1.89;83.87;101760.47;6185078;23;20080;-84
2022/04/11 00:52:31;;;;;;;14.73;12.40;;;;;;;1.81;83.74;101745.28;6184642;23;20005;-84
2022/04/11 00:54:58;;;;;;;17.17;14.38;;;;;;;2.02;83.60;101774.72;6184778;23;20078;-84
2022/04/11 00:57:31;;;;;;;17.10;13.55;;;;;;;1.68;83.83;101708.94;6184915;23;20097;-84
2022/04/11 01:00:01;;;;;;;18.45;14.35;;;;;;;1.60;83.47;101703.09;6185013;23;20060;-84
2022/04/11 01:37:51;;;;;;;17.33;15.07;;;;;;;2.95;81.88;101900.97;6156886;23;20325;-83
2022/04/11 01:48:00;;;;;;;18.52;15.30;;;;;;;2.92;81.81;101895.06;6156099;23;20031;-83
2022/04/11 01:54:20;;;;;;;17.88;15.85;;;;;;;2.88;82.15;101896.81;6156616;23;20060;-84
2022/04/11 01:57:17;;;;;;;;;;;;;;;;;;;;;
2022/04/11 02:00:35;;;;;;;20.42;15.68;;;;;;;2.87;82.91;101887.47;6108884;23;20491;-84
2022/04/11 02:03:31;;;;;;;18.27;16.00;;;;;;;2.86;83.23;101884.09;6156103;23;20008;-84
2022/04/11 02:06:10;;;;;;;;;;;;;;;;;;;;;
2022/04/11 02:08:36;;;;;;;17.85;15.70;;;;;;;1.29;83.14;101638.16;6155940;23;20088;-83
2022/04/11 02:24:56;;;;;;;19.35;16.20;;;;;;;2.58;83.42;101888.72;6156462;23;20068;-84
2022/04/11 02:27:48;;;;;;;19.45;16.58;;;;;;;2.55;83.58;101893.81;6129767;23;20021;-84
2022/04/11 02:34:25;;;;;;;20.13;15.63;;;;;;;2.46;83.58;101893.09;6155941;23;20113;-83
2022/04/11 02:43:45;;;;;;;20.80;16.00;;;;;;;2.34;84.21;101888.16;6156124;23;20156;-83
2022/04/11 02:46:11;;;;;;;19.08;15.30;;;;;;;1.70;84.44;101803.13;6155893;23;20009;-83
2022/04/11 02:48:38;;;;;;;18.90;16.80;;;;;;;1.56;84.92;101780.34;6155706;23;20006;-83
2022/04/11 02:54:46;;;;;;;18.67;16.52;;;;;;;1.10;85.13;101724.00;6008802;23;20103;-83
2022/04/11 03:00:51;;;;;;;20.75;16.92;;;;;;;1.41;85.22;101793.22;6004927;23;20564;-84
2022/04/11 03:07:31;;;;;;;21.75;16.50;;;;;;;1.91;85.60;101871.66;6008623;23;20076;-83
2022/04/11 03:38:57;;;;;;;20.60;17.58;;;;;;;1.14;86.87;101891.81;6185248;23;20026;-84
2022/04/11 03:42:06;;;;;;;21.20;17.30;;;;;;;1.12;87.49;101885.91;6185415;23;20104;-83
2022/04/11 03:51:49;;;;;;;24.48;17.58;;;;;;;0.97;87.92;101880.06;6064837;23;20053;-84
2022/04/11 03:54:26;;;;;;;21.38;17.08;;;;;;;0.10;87.88;101758.56;6093822;23;20489;-83
2022/04/11 03:56:57;;;;;;;24.33;18.08;;;;;;;-0.21;88.27;101707.94;6094006;23;20018;-83
2022/04/11 03:59:44;;;;;;;21.25;17.52;;;;;;;0.02;87.93;101738.31;6094331;23;20402;-83
2022/04/11 04:02:58;;;;;;;24.85;18.88;;;;;;;-0.27;88.38;101691.91;6093931;23;20077;-83
2022/04/11 04:19:02;;;;;;;22.73;18.77;;;;;;;-0.59;88.70;101662.41;6094286;23;20471;-83
2022/04/11 04:25:23;;;;;;;21.58;17.83;;;;;;;0.67;88.94;101870.94;6093772;23;20372;-84
2022/04/11 04:28:29;;;;;;;24.48;19.50;;;;;;;0.66;88.88;101867.53;6097036;23;20030;-83
2022/04/11 04:30:58;;;;;;;20.88;18.10;;;;;;;-0.23;89.34;101717.28;6128818;23;20029;-83
2022/04/11 04:33:23;;;;;;;25.33;19.98;;;;;;;-0.77;89.45;101627.00;6155459;23;20013;-84
2022/04/11 04:35:52;;;;;;;22.80;19.15;;;;;;;0.28;89.27;101811.84;6154843;23;20032;-84
2022/04/11 04:38:51;;;;;;;25.13;19.92;;;;;;;-0.86;89.39;101620.28;6155262;23;20046;-84
2022/04/11 04:41:30;;;;;;;24.85;19.75;;;;;;;-0.60;89.56;101663.28;6058260;23;20010;-84
2022/04/11 04:43:55;;;;;;;23.02;19.67;;;;;;;-0.74;89.53;101650.66;6100056;23;20013;-83
2022/04/11 04:47:10;;;;;;;24.92;20.23;;;;;;;0.56;89.75;101858.28;6148101;23;20001;-83
2022/04/11 04:56:59;;;;;;;24.52;19.67;;;;;;;0.53;89.77;101858.31;6155021;23;20021;-83
2022/04/11 05:03:12;;;;;;;24.33;19.08;;;;;;;0.56;89.87;101855.75;6154849;23;20024;-84
2022/04/11 05:05:49;;;;;;;24.70;19.17;;;;;;;-0.63;89.71;101655.69;6155151;23;20017;-83
2022/04/11 05:12:07;;;;;;;22.50;18.77;;;;;;;0.61;89.89;101851.50;6156905;23;20029;-83
2022/04/11 05:14:51;;;;;;;26.13;20.00;;;;;;;0.14;89.74;101762.81;6130893;23;20060;-83
2022/04/11 05:17:28;;;;;;;24.17;20.25;;;;;;;0.15;89.83;101757.72;6156829;23;20009;-83
2022/04/11 05:19:59;;;;;;;24.90;20.25;;;;;;;-0.88;89.90;101589.84;6130546;23;20068;-83
2022/04/11 05:23:14;;;;;;;22.88;18.85;;;;;;;0.80;89.84;101854.78;6156405;23;19997;-83
2022/04/11 05:25:40;;;;;;;27.85;19.95;;;;;;;-0.49;89.36;101632.78;6130221;23;20085;-83
2022/04/11 05:31:50;;;;;;;27.77;19.63;;;;;;;-0.33;88.71;101620.03;6156505;23;20509;-83
2022/04/11 05:37:25;;;;;;;27.42;19.70;;;;;;;0.77;88.62;101766.63;6155649;23;20010;-84
2022/04/11 05:39:50;;;;;;;23.00;18.95;;;;;;;1.03;88.32;101773.22;6156527;23;20008;-83
2022/04/11 05:42:16;;;;;;;22.90;18.30;;;;;;;0.49;87.51;101668.56;6156843;23;20009;-83
2022/04/11 05:45:25;;;;;;;24.17;17.77;;;;;;;1.75;86.83;101851.44;6156569;23;20006;-83
2022/04/11 05:48:25;;;;;;;22.45;17.15;;;;;;;0.76;86.92;101660.72;6156824;23;20055;-82
2022/04/11 05:50:53;;;;;;;21.33;17.05;;;;;;;0.74;85.31;101628.53;6156561;23;20359;-81
2022/04/11 05:53:19;;;;;;;21.08;16.92;;;;;;;1.15;85.02;101656.94;6155990;23;20009;-82
2022/04/11 05:55:44;;;;;;;22.08;16.52;;;;;;;1.58;84.31;101693.78;6156737;23;20005;-82
2022/04/11 05:58:18;;;;;;;22.63;16.65;;;;;;;2.33;83.80;101757.31;6174394;23;20447;-81
2022/04/11 06:01:05;;;;;;;25.70;17.77;;;;;;;4.11;82.23;101841.94;6186070;23;20009;-82
2022/04/11 06:03:39;;;;;;;21.15;16.75;;;;;;;4.49;75.89;101627.16;6186202;23;20434;-81
2022/04/11 06:06:05;;;;;;;19.80;15.07;;;;;;;6.38;69.44;101687.56;6186151;23;20423;-82
2022/04/11 06:08:31;;;;;;;19.20;14.57;;;;;;;8.54;65.04;101841.03;6160030;23;20056;-81
2022/04/11 06:10:56;;;;;;;19.75;13.65;;;;;;;9.69;59.74;101831.22;6186124;23;20355;-81
2022/04/11 06:13:22;;;;;;;14.50;11.60;;;;;;;10.54;56.00;101818.81;6159679;23;20079;-82
2022/04/11 06:15:47;;;;;;;14.80;11.65;;;;;;;11.26;53.13;101830.84;6185888;23;20367;-81
2022/04/11 06:18:12;;;;;;;14.90;10.70;;;;;;;11.78;52.01;101832.44;6185674;23;20005;-81
2022/04/11 06:20:45;;;;;;;16.75;11.35;;;;;;;12.09;50.96;101789.44;6184392;23;20015;-79
2022/04/11 06:23:10;;;;;;;12.10;10.15;;;;;;;12.62;47.98;101788.25;6186374;23;20001;-81
2022/04/11 06:25:36;;;;;;;12.73;9.32;;;;;;;13.23;46.92;101807.25;6185050;23;20430;-79
2022/04/11 06:28:01;;;;;;;16.33;10.23;;;;;;;13.59;45.12;101796.47;6185376;23;20031;-81
2022/04/11 06:30:26;;;;;;;14.77;9.82;;;;;;;14.14;43.75;101832.03;6185962;23;20001;-82
2022/04/11 06:32:52;;;;;;;16.33;11.38;;;;;;;14.44;42.39;101829.28;6186132;23;20084;-80
2022/04/11 06:35:24;;;;;;;16.77;9.30;;;;;;;14.83;44.49;101828.53;6185888;23;20009;-80
2022/04/11 06:37:52;;;;;;;18.15;9.35;;;;;;;15.13;42.37;101821.31;6185695;23;20140;-77
2022/04/11 06:40:20;;;;;;;13.88;8.60;;;;;;;15.33;40.38;101817.38;6159242;23;20001;-80
2022/04/11 06:42:45;;;;;;;11.85;9.13;;;;;;;15.44;39.56;101801.06;6159049;23;20009;-81
2022/04/11 06:45:21;;;;;;;;;;;;;;;;;;;;;
2022/04/11 06:47:48;;;;;;;11.40;7.90;;;;;;;15.61;39.60;101831.16;6185291;23;20095;-80
2022/04/11 06:50:31;;;;;;;9.52;7.47;;;;;;;15.08;42.35;101741.94;6185670;23;20001;-77
2022/04/11 06:53:23;;;;;;;14.05;8.40;;;;;;;14.72;43.32;101651.59;6159314;23;20486;-78
2022/04/11 06:55:48;;;;;;;13.90;8.90;;;;;;;15.61;38.95;101785.13;6065698;23;20082;-79
2022/04/11 06:58:17;;;;;;;10.70;7.55;;;;;;;16.16;38.38;101828.19;6065354;23;20046;-80
2022/04/11 07:00:46;;;;;;;12.52;8.30;;;;;;;16.29;38.45;101808.13;6065448;23;20457;-79
2022/04/11 07:03:12;;;;;;;9.90;8.15;;;;;;;16.76;37.49;101829.13;6065321;23;20007;-80
2022/04/11 07:05:38;;;;;;;12.13;8.35;;;;;;;16.85;36.86;101829.31;6065587;23;20123;-79
2022/04/11 07:08:05;;;;;;;10.48;8.13;;;;;;;15.82;37.42;101808.03;6041745;23;20014;-78
2022/04/11 07:10:31;;;;;;;12.27;8.73;;;;;;;14.59;40.21;101841.34;6065126;23;20011;-79
2022/04/11 07:12:59;;;;;;;11.35;8.80;;;;;;;13.16;43.08;101840.44;6065519;23;20084;-80
2022/04/11 07:15:25;;;;;;;11.77;8.70;;;;;;;11.40;45.69;101751.63;6065728;23;20597;-79
2022/04/11 07:17:50;;;;;;;9.90;8.90;;;;;;;10.70;47.65;101742.25;6041726;23;20034;-82
2022/04/11 07:20:16;;;;;;;12.27;9.75;;;;;;;10.56;49.52;101811.84;6065600;23;20035;-80
2022/04/11 07:22:42;;;;;;;11.52;9.07;;;;;;;10.06;51.56;101808.06;6065753;23;20014;-80
2022/04/11 07:25:22;;;;;;;13.63;9.55;;;;;;;9.06;52.20;101707.63;6017065;23;20007;-78
2022/04/11 07:27:55;;;;;;;11.98;9.50;;;;;;;8.79;54.48;101698.47;6065319;23;20017;-77
2022/04/11 07:30:21;;;;;;;14.63;9.65;;;;;;;8.88;54.39;101749.59;6065661;23;20007;-80
2022/04/11 07:35:57;;;;;;;12.90;10.02;;;;;;;7.92;56.32;101630.72;6064921;23;20066;-80
2022/04/11 07:38:25;;;;;;;11.63;9.40;;;;;;;8.49;56.80;101750.31;6065507;23;20042;-80
2022/04/11 07:41:02;;;;;;;13.15;9.70;;;;;;;7.68;57.52;101619.66;6065010;23;20007;-80
2022/04/11 07:47:09;;;;;;;14.50;10.38;;;;;;;7.69;58.15;101623.06;5980044;24;20027;-80
2022/04/11 07:49:51;;;;;;;12.70;9.32;;;;;;;8.43;58.42;101739.41;5980500;24;20008;-81
2022/04/11 07:52:31;;;;;;;14.55;9.25;;;;;;;8.49;58.31;101737.44;5980310;24;20008;-87
2022/04/11 07:55:23;;;;;;;12.43;9.93;;;;;;;8.98;58.86;101804.16;5979896;24;20016;-80
2022/04/11 08:08:29;;;;;;;11.15;9.15;;;;;;;8.87;58.29;101729.91;5818004;24;20064;-81
2022/04/11 08:24:07;;;;;;;11.45;7.65;;;;;;;9.61;58.29;101773.97;6184971;23;20024;-77
2022/04/11 08:26:41;;;;;;;12.48;7.72;;;;;;;8.51;57.04;101582.91;6158201;23;20088;-80
2022/04/11 08:33:06;;;;;;;11.55;8.05;;;;;;;9.79;57.93;101778.31;6184880;23;20035;-80
2022/04/11 08:50:20;;;;;;;10.23;7.50;;;;;;;10.06;57.29;101769.34;6216860;23;20074;-79
2022/04/11 09:15:12;;;;;;;8.85;6.22;;;;;;;10.78;54.82;101775.47;6216702;23;20071;-82
2022/04/11 09:24:26;;;;;;;9.13;5.95;;;;;;;10.00;52.69;101586.41;6216510;23;20059;-83
2022/04/11 09:27:07;;;;;;;12.05;6.70;;;;;;;9.91;54.37;101555.06;6216365;23;20001;-81
2022/04/11 09:29:50;;;;;;;12.32;6.55;;;;;;;10.42;53.57;101629.16;6216877;23;20000;-82
2022/04/11 09:32:15;;;;;;;11.38;6.55;;;;;;;10.16;53.99;101565.88;6217206;23;19997;-84
2022/04/11 09:35:25;;;;;;;9.07;6.28;;;;;;;11.33;52.87;101733.94;6216838;23;20031;-82
2022/04/11 09:38:07;;;;;;;9.20;5.82;;;;;;;11.30;51.51;101734.91;6216456;23;20001;-91
2022/04/11 09:43:41;;;;;;;10.18;5.32;;;;;;;11.08;50.68;101672.31;6214203;23;19908;-90
2022/04/11 09:46:49;;;;;;;9.23;5.95;;;;;;;10.25;51.38;101525.91;6216703;23;20028;-92
2022/04/11 09:49:27;;;;;;;9.98;4.80;;;;;;;11.13;50.37;101653.06;6139320;23;20015;-90
2022/04/11 09:59:14;;;;;;;7.90;4.60;;;;;;;10.52;48.54;101515.88;6094831;23;20022;-81
2022/04/11 10:05:29;;;;;;;10.07;5.23;;;;;;;12.03;48.96;101700.00;6095335;23;20106;-81
2022/04/11 10:40:29;;;;;;;10.10;4.97;;;;;;;12.28;45.55;101693.44;6215825;23;20023;-83
2022/04/11 10:47:03;;;;;;;9.85;4.93;;;;;;;12.43;45.16;101683.97;6216162;23;20066;-87
2022/04/11 10:49:53;;;;;;;8.27;4.60;;;;;;;11.62;43.79;101535.81;6216038;23;20009;-86
2022/04/11 10:52:59;;;;;;;9.57;4.43;;;;;;;12.58;43.91;101673.56;6205133;23;20020;-84
2022/04/11 11:41:55;;;;;;;8.32;4.47;;;;;;;13.33;40.72;101578.34;6215167;23;20004;-83
2022/04/11 11:44:43;;;;;;;10.07;4.20;;;;;;;13.28;39.38;101575.22;6188365;23;20055;-78
2022/04/11 11:47:28;;;;;;;7.85;4.72;;;;;;;13.26;39.77;101574.47;6215323;23;20362;-82
2022/04/11 11:50:34;;;;;;;9.07;5.22;;;;;;;12.44;41.75;101427.44;6215323;23;20079;-81
2022/04/11 12:21:28;;;;;;;10.73;6.00;;;;;;;12.72;40.48;101398.06;6215138;23;20059;-79
2022/04/11 12:24:05;;;;;;;10.15;5.68;;;;;;;12.65;39.52;101376.06;6214316;23;20096;-81
2022/04/11 12:26:37;;;;;;;8.80;5.90;;;;;;;13.67;39.60;101529.50;6214902;23;20027;-80
2022/04/11 12:29:17;;;;;;;11.07;6.70;;;;;;;13.63;39.90;101518.47;6215104;23;20005;-79
2022/04/11 12:32:01;;;;;;;10.00;6.10;;;;;;;13.09;41.35;101406.13;6188184;23;20304;-80
2022/04/11 12:34:38;;;;;;;11.07;6.00;;;;;;;13.68;41.46;101485.28;6214782;23;20462;-80
2022/04/11 12:37:07;;;;;;;9.88;6.53;;;;;;;13.69;39.46;101479.16;6214736;23;20011;-80
2022/04/11 12:39:56;;;;;;;10.27;6.53;;;;;;;13.71;39.29;101484.25;6214739;23;20005;-81
2022/04/11 12:42:26;;;;;;;11.70;6.65;;;;;;;13.93;38.87;101513.03;6188269;23;20004;-83
2022/04/11 12:45:06;;;;;;;10.07;6.15;;;;;;;13.92;38.16;101513.97;6213895;23;20360;-81
2022/04/11 12:47:32;;;;;;;8.55;5.85;;;;;;;13.81;38.17;101492.25;6216009;23;20009;-81
2022/04/11 12:49:57;;;;;;;11.10;6.10;;;;;;;13.95;38.41;101512.94;6214878;23;20009;-81
2022/04/11 12:52:25;;;;;;;10.00;5.72;;;;;;;13.95;38.71;101513.75;6215105;23;20076;-83
2022/04/11 12:55:01;;;;;;;10.50;5.90;;;;;;;13.98;37.83;101510.16;6215108;23;20011;-80
2022/04/11 12:57:32;;;;;;;10.45;6.32;;;;;;;13.93;38.88;101497.47;6214865;23;20001;-81
2022/04/11 13:00:20;;;;;;;7.70;5.90;;;;;;;13.92;39.84;101482.81;6215223;23;20005;-79
2022/04/11 13:02:46;;;;;;;10.77;5.65;;;;;;;14.01;39.57;101484.81;6214680;23;20021;-79
2022/04/11 13:05:15;;;;;;;8.50;5.35;;;;;;;14.18;38.23;101503.63;6214720;23;20339;-80
2022/04/11 13:07:45;;;;;;;8.63;5.60;;;;;;;14.20;37.43;101502.59;6214864;23;20009;-82
2022/04/11 13:10:11;;;;;;;8.77;5.78;;;;;;;14.12;38.82;101480.66;6188154;23;20062;-80
2022/04/11 13:12:36;;;;;;;10.52;4.82;;;;;;;14.31;35.86;101501.84;6214898;23;20353;-79
2022/04/11 13:15:02;;;;;;;8.57;5.07;;;;;;;14.36;35.69;101492.00;6214522;23;20016;-81
2022/04/11 13:20:11;;;;;;;9.77;5.15;;;;;;;14.48;37.32;101475.59;6214966;23;20343;-79
2022/04/11 13:22:37;;;;;;;9.55;5.00;;;;;;;14.39;36.75;101441.59;6214456;23;20001;-81
2022/04/11 13:25:06;;;;;;;9.00;5.47;;;;;;;14.64;37.58;101455.38;6214642;23;20015;-81
2022/04/11 13:42:55;;;;;;;10.73;6.22;;;;;;;14.60;37.92;101451.34;6180793;23;20338;-80
2022/04/11 14:17:07;;;;;;;8.52;5.50;;;;;;;13.79;36.93;101253.53;6188894;23;20347;-83
2022/04/11 14:19:32;;;;;;;8.88;5.68;;;;;;;14.69;36.46;101384.03;6184246;23;20089;-80
2022/04/11 14:29:25;;;;;;;10.00;5.72;;;;;;;14.77;36.03;101363.53;6151648;23;20092;-82
2022/04/11 14:42:34;;;;;;;9.07;5.70;;;;;;;14.97;35.54;101352.53;6065997;23;20086;-83
2022/04/11 14:45:52;;;;;;;9.05;5.28;;;;;;;14.92;35.23;101339.00;6065952;23;20015;-80
2022/04/11 14:48:32;;;;;;;8.82;5.32;;;;;;;13.89;35.22;101176.69;6065661;23;20066;-82
2022/04/11 15:02:22;;;;;;;9.60;5.35;;;;;;;13.96;34.94;101195.22;6183132;22;20029;-77
2022/04/11 15:05:03;;;;;;;8.50;5.40;;;;;;;14.34;34.70;101253.03;6185584;23;20005;-78
2022/04/11 15:14:07;;;;;;;8.50;5.63;;;;;;;13.85;34.38;101156.22;6035659;23;20018;-88
2022/04/11 15:16:44;;;;;;;8.60;4.97;;;;;;;14.56;34.04;101265.38;6065621;23;20011;-79
2022/04/11 15:19:15;;;;;;;9.55;4.90;;;;;;;13.95;34.13;101154.63;6065196;23;20015;-80
2022/04/11 15:22:09;;;;;;;;;;;;;;;;;;;;;
2022/04/11 15:25:17;;;;;;;8.98;5.47;;;;;;;14.80;34.73;101269.72;6064965;23;20545;-83
2022/04/11 15:28:01;;;;;;;9.32;5.70;;;;;;;15.10;34.34;101305.63;6065622;23;20018;-80
2022/04/11 15:34:10;;;;;;;;;;;;;;;;;;;;;
2022/04/11 15:36:54;;;;;;;9.25;5.55;;;;;;;14.21;35.42;101157.94;6016925;23;20074;-81
2022/04/11 15:46:08;;;;;;;13.20;6.38;;;;;;;14.17;35.57;101167.75;6064681;23;20352;-82
2022/04/11 15:48:36;;;;;;;9.30;5.78;;;;;;;14.90;35.22;101284.50;6041291;23;20037;-80
2022/04/11 15:51:20;;;;;;;10.10;6.22;;;;;;;14.09;36.18;101159.66;6143184;23;20111;-80
2022/04/11 15:57:56;;;;;;;9.88;5.50;;;;;;;14.89;35.86;101266.44;6064265;23;20011;-84
2022/04/11 16:00:32;;;;;;;12.45;5.80;;;;;;;13.69;35.44;101079.47;6065025;23;20372;-80
2022/04/11 16:06:57;;;;;;;9.45;5.88;;;;;;;14.48;35.69;101209.69;5924657;24;20081;-80
2022/04/11 16:10:12;;;;;;;8.60;6.15;;;;;;;14.73;35.57;101256.31;5924278;24;20099;-81
2022/04/11 16:13:14;;;;;;;7.70;5.85;;;;;;;14.76;36.33;101263.09;5924471;24;20084;-81
2022/04/11 16:16:07;;;;;;;9.68;5.93;;;;;;;14.79;35.90;101255.88;5924483;24;20013;-80
2022/04/11 16:26:01;;;;;;;;;;;;;;;14.92;35.48;101246.22;5817016;24;20059;-81
2022/04/11 16:28:32;;;;;;;9.88;5.72;;;;;;;14.91;35.64;101248.94;5818866;24;20324;-81
2022/04/11 16:31:24;;;;;;;9.40;5.82;;;;;;;13.95;35.91;101098.31;5816591;24;20015;-81
2022/04/11 16:34:38;;;;;;;8.88;5.85;;;;;;;14.84;35.99;101238.16;5889017;23;20015;-80
2022/04/11 16:40:35;;;;;;;8.02;5.18;;;;;;;14.14;36.27;101138.53;5979802;24;20019;-80
2022/04/11 16:43:37;;;;;;;7.75;5.65;;;;;;;14.71;36.45;101239.19;5979927;24;20035;-81
2022/04/11 16:46:13;;;;;;;9.25;5.85;;;;;;;13.60;36.65;101061.13;5979751;23;20412;-81
2022/04/11 16:49:14;;;;;;;9.40;5.85;;;;;;;13.44;36.58;101044.06;5910012;24;20082;-80
2022/04/11 16:55:07;;;;;;;8.98;5.57;;;;;;;14.46;37.34;101225.41;5980421;24;20038;-79
2022/04/11 16:57:54;;;;;;;8.80;5.50;;;;;;;14.42;37.28;101229.13;5980228;24;20347;-78
2022/04/11 17:00:38;;;;;;;8.65;5.13;;;;;;;13.86;36.79;101153.50;5979845;24;20463;-78
2022/04/11 17:03:07;;;;;;;9.80;5.35;;;;;;;13.20;37.42;101045.81;6144282;23;20446;-79
2022/04/11 17:05:32;;;;;;;7.85;5.25;;;;;;;13.56;36.74;101119.34;6123906;23;20089;-77
2022/04/11 17:08:10;;;;;;;9.27;5.40;;;;;;;13.05;37.21;101045.06;6138256;23;20436;-80
2022/04/11 17:10:57;;;;;;;9.40;5.10;;;;;;;14.06;37.35;101217.84;6156704;23;20008;-88
2022/04/11 17:13:31;;;;;;;11.45;5.10;;;;;;;13.42;37.93;101139.31;6157060;23;20006;-79
2022/04/11 17:19:08;;;;;;;7.75;5.05;;;;;;;13.84;38.35;101229.84;6156813;23;20450;-81
2022/04/11 17:21:35;;;;;;;7.25;4.75;;;;;;;13.75;37.94;101228.72;6156465;23;20005;-76
2022/04/11 17:24:00;;;;;;;7.43;4.60;;;;;;;12.85;38.51;101081.91;6156436;23;20012;-77
2022/04/11 17:26:27;;;;;;;9.20;5.38;;;;;;;13.19;38.30;101160.84;6156848;23;20005;-80
2022/04/11 17:28:56;;;;;;;8.40;4.65;;;;;;;13.34;38.47;101197.84;6156683;23;20042;-80
2022/04/11 17:31:22;;;;;;;8.18;5.05;;;;;;;13.52;38.13;101232.09;6156387;23;20426;-83
2022/04/11 17:33:50;;;;;;;10.27;5.75;;;;;;;13.27;38.84;101201.78;6156618;23;20024;-84
2022/04/11 17:36:17;;;;;;;10.68;5.07;;;;;;;13.37;39.31;101229.63;6156508;23;20416;-80
2022/04/11 17:38:43;;;;;;;10.25;5.60;;;;;;;13.23;39.11;101221.94;6156583;23;20009;-81
2022/04/11 17:41:08;;;;;;;9.10;5.43;;;;;;;13.30;39.22;101246.53;6156392;23;20136;-81
2022/04/11 17:43:37;;;;;;;9.63;5.72;;;;;;;13.24;39.81;101235.72;6156262;23;20002;-81
2022/04/11 17:46:02;;;;;;;8.95;5.10;;;;;;;13.05;40.09;101217.94;6156856;23;20053;-81
2022/04/11 17:48:29;;;;;;;7.88;5.20;;;;;;;12.74;40.23;101186.31;6156573;23;20372;-83
2022/04/11 17:50:58;;;;;;;9.63;5.40;;;;;;;12.95;40.31;101235.06;6156202;23;20013;-81
2022/04/11 17:53:26;;;;;;;8.88;5.72;;;;;;;12.95;40.47;101242.81;6156260;23;20012;-80
2022/04/11 17:56:13;;;;;;;8.65;5.38;;;;;;;12.90;41.10;101249.16;6082507;23;20384;-81
2022/04/11 17:58:41;;;;;;;10.55;5.18;;;;;;;12.80;41.38;101248.09;6156305;23;20052;-82
2022/04/11 18:01:14;;;;;;;8.68;5.28;;;;;;;11.58;41.79;101064.34;6156298;23;20041;-81
2022/04/11 18:03:46;;;;;;;8.38;4.88;;;;;;;11.66;42.45;101097.50;6157254;23;20332;-81
2022/04/11 18:06:33;;;;;;;8.75;5.70;;;;;;;12.54;42.52;101259.31;6156337;23;20077;-79
2022/04/11 18:09:30;;;;;;;10.30;5.50;;;;;;;12.44;42.83;101263.44;6156162;23;20012;-83
2022/04/11 18:15:16;;;;;;;9.60;5.78;;;;;;;11.51;43.28;101143.28;6037781;23;20152;-80
2022/04/11 18:20:48;;;;;;;10.38;6.35;;;;;;;12.04;44.21;101259.00;6200364;23;20025;-83
2022/04/11 18:23:30;;;;;;;11.88;6.15;;;;;;;11.57;44.36;101204.97;6188952;23;20339;-81
2022/04/11 18:25:58;;;;;;;10.50;5.90;;;;;;;11.89;44.63;101266.88;6189256;23;20334;-80
2022/04/11 18:34:03;;;;;;;10.30;6.10;;;;;;;11.64;44.95;101249.41;6216003;23;20106;-87
2022/04/11 18:36:30;;;;;;;11.82;6.40;;;;;;;11.63;45.54;101258.09;6215877;23;20011;-86
2022/04/11 18:38:55;;;;;;;10.35;6.13;;;;;;;11.24;46.06;101207.84;6203832;23;20051;-81
2022/04/11 18:41:21;;;;;;;10.18;6.40;;;;;;;11.27;45.49;101222.31;6215600;23;20009;-82
2022/04/11 18:43:48;;;;;;;9.02;6.57;;;;;;;10.94;45.66;101173.47;6216302;23;20023;-77
2022/04/11 18:46:14;;;;;;;9.05;6.53;;;;;;;11.19;45.95;101225.38;6215784;23;20009;-80
2022/04/11 18:48:48;;;;;;;9.88;6.47;;;;;;;11.25;46.27;101240.53;6189630;23;20085;-82
2022/04/11 18:51:14;;;;;;;10.35;6.32;;;;;;;11.28;45.94;101262.78;6216149;23;20032;-78
2022/04/11 18:53:45;;;;;;;10.93;6.47;;;;;;;11.28;46.37;101266.19;6214992;23;20377;-80
2022/04/11 18:56:11;;;;;;;10.40;6.47;;;;;;;11.20;46.39;101253.69;6215767;23;20064;-81
2022/04/11 18:58:39;;;;;;;10.38;6.20;;;;;;;11.22;46.21;101268.31;6188442;23;20382;-82
2022/04/11 19:01:04;;;;;;;10.93;7.22;;;;;;;11.16;46.66;101264.31;6188859;23;20422;-89
2022/04/11 19:03:30;;;;;;;10.35;6.88;;;;;;;10.85;46.85;101226.50;6215774;23;20028;-81
2022/04/11 19:05:56;;;;;;;10.77;6.93;;;;;;;10.53;46.99;101184.47;6215906;23;20125;-79
2022/04/11 19:08:21;;;;;;;12.23;7.07;;;;;;;11.02;47.54;101265.13;6215560;23;20004;-80
2022/04/11 19:10:47;;;;;;;11.05;7.53;;;;;;;10.95;47.11;101258.66;6215820;23;20386;-81
2022/04/11 19:13:22;;;;;;;9.45;7.22;;;;;;;10.99;47.98;101275.63;6215953;23;20004;-79
2022/04/11 19:15:48;;;;;;;11.95;7.47;;;;;;;10.82;47.90;101257.69;6215506;23;20075;-82
2022/04/11 19:18:13;;;;;;;11.32;7.88;;;;;;;10.89;48.12;101284.81;6215666;23;20032;-80
2022/04/11 19:20:38;;;;;;;12.48;9.00;;;;;;;10.86;48.14;101283.25;6214930;23;20048;-80
2022/04/11 19:23:04;;;;;;;12.25;8.20;;;;;;;10.73;48.29;101260.81;6215226;23;20434;-80
2022/04/11 19:25:30;;;;;;;11.77;8.13;;;;;;;10.83;47.98;101282.63;6215123;23;20374;-81
2022/04/11 19:27:55;;;;;;;11.68;8.30;;;;;;;10.53;48.06;101234.34;6215193;23;20012;-82
2022/04/11 19:30:23;;;;;;;14.18;9.55;;;;;;;10.58;48.98;101259.91;6215412;23;20399;-80
2022/04/11 19:32:48;;;;;;;13.75;8.63;;;;;;;10.51;48.60;101243.91;6215657;23;20032;-79
2022/04/11 19:35:14;;;;;;;12.95;7.82;;;;;;;10.58;48.01;101252.16;6215581;23;20001;-80
2022/04/11 19:37:42;;;;;;;10.00;7.50;;;;;;;10.69;48.59;101272.22;6215138;23;20008;-79
2022/04/11 19:40:09;;;;;;;11.35;7.53;;;;;;;10.66;48.40;101270.63;6214962;23;20415;-78
2022/04/11 19:42:35;;;;;;;10.57;7.20;;;;;;;10.56;48.69;101247.09;6188167;23;20016;-80
2022/04/11 19:45:00;;;;;;;12.43;6.60;;;;;;;10.44;48.52;101236.63;6215432;23;20365;-79
2022/04/11 19:50:10;;;;;;;14.15;6.95;;;;;;;10.65;48.01;101262.97;6215023;23;20347;-79
2022/04/11 19:55:44;;;;;;;11.07;7.20;;;;;;;9.69;48.21;101109.94;6215028;23;20020;-80
2022/04/11 19:58:28;;;;;;;9.63;6.43;;;;;;;9.66;48.09;101099.81;6215471;23;20008;-81
2022/04/11 20:01:14;;;;;;;10.40;6.85;;;;;;;9.43;47.71;101054.66;6215239;23;20001;-80
2022/04/11 20:03:43;;;;;;;11.05;6.55;;;;;;;10.21;47.52;101181.88;6215087;23;20031;-80
2022/04/11 20:06:12;;;;;;;11.55;6.95;;;;;;;10.55;47.80;101237.66;6214870;23;20028;-80
2022/04/11 20:08:38;;;;;;;10.90;6.55;;;;;;;10.59;47.58;101236.56;6214549;23;20009;-81
2022/04/11 20:11:05;;;;;;;10.52;6.05;;;;;;;10.26;47.72;101195.41;6215287;23;20059;-80
2022/04/11 20:13:32;;;;;;;9.55;5.93;;;;;;;10.48;48.09;101238.94;6215160;23;20419;-81
2022/04/11 20:15:57;;;;;;;11.75;6.45;;;;;;;10.41;47.82;101216.94;6215239;23;20031;-80
2022/04/11 20:18:25;;;;;;;10.82;6.05;;;;;;;10.63;47.64;101253.56;6215169;23;20009;-80
2022/04/11 20:20:54;;;;;;;9.80;5.65;;;;;;;9.49;48.16;101063.81;6212250;23;20059;-80